Details From EDNY - Friedrichshafen
To LSZR - St.Gallen-Altenrhein
Flight Number -
Tags generated
Created
Modified
Stats Distance 11 nm / 21 km
Max Altitude 700 ft / 213 m
Waypoints 3
Social Downloads 15
Likes 0
Share

Download

Looking for another format? Having issues loading an existing format? Contact us
Advertisement - Login to hide

Notes

Basic altitude profile: - Ascent Rate: 2500ft/min - Ascent Speed: 250kts - Cruise Altitude: 35000ft - Cruise Speed: 420kts - Descent Rate: 1500ft/min - Descent Speed: 250kts

Route

EDNY BAMUR LSZR

ID Type Via Altitude (ft/m) Position (lat/lon) Dist (leg/tot) Name
O EDNY APT - 0 / 0 47.67089 / 9.50818 - / 0 nm Friedrichshafen
BAMUR FIX - 700 / 213 47.54472 / 9.54361 7 / 7 nm
O LSZR APT - 0 / 0 47.48556 / 9.56074 3 / 11 nm St.Gallen-Altenrhein

Altitude Profile

Advertisement - Login to hide

EDNY

Details ICAO EDNY (FDH)
Name Friedrichshafen
Region Germany - Civil
Timezone Europe/Berlin (UTC+2.0)
Stats Elevation 1,368 ft / 417 m (AMSL)
Location 47.671100° 9.508820°
Runways 2
Magnetic Variation 3.128° E

METAR

EDNY 271450Z 24014KT CAVOK 22/11 Q1020

Decode

TAF

TAF EDNY 271100Z 2712/2812 27010KT 9999 FEW050 BECMG 2717/2719 33007KT BECMG 2802/2804 03006KT

Decode

Departure Runways

ID Width Length Bearing (true/mag) Surface Threshold Overrun Markings Lighting
06 148 ft / 45 m 7,737 ft / 2,358 m 60.06° / 56.93° ASPHALT 879 ft / 268 m 0 ft / 0 m PREC-APP CENTERLINE EDGE THRESHOLD ALSF-I REIL-OMNI
06L 92 ft / 28 m 3,899 ft / 1,188 m 60.13° / 57.00° GRASS 0 ft / 0 m 0 ft / 0 m NONE
24 148 ft / 45 m 7,737 ft / 2,358 m 240.08° / 236.95° ASPHALT 666 ft / 203 m 89 ft / 27 m PREC-APP CENTERLINE EDGE THRESHOLD ALSF-II REIL-OMNI
24R 92 ft / 28 m 3,899 ft / 1,188 m 240.14° / 237.01° GRASS 0 ft / 0 m 0 ft / 0 m NONE

LSZR

Details ICAO LSZR (ACH)
Name Sankt Gallen - Altenrhein
Region Switzerland
Timezone Europe/Zurich (UTC+2.0)
Stats Elevation 1,306 ft / 398 m (AMSL)
Location 47.485600° 9.560750°
Runways 2
Magnetic Variation 3.135° E

METAR

LSZR 271450Z 31014KT 9999 FEW050 23/14 Q1020 NOSIG RMK M

Decode

TAF

Not found

Destination Runways

ID Width Length Bearing (true/mag) Surface Threshold Overrun Markings Lighting
10 98 ft / 30 m 4,905 ft / 1,495 m 98.76° / 95.62° ASPHALT 331 ft / 101 m 0 ft / 0 m PREC-APP CENTERLINE EDGE THRESHOLD SALS REIL-UNI
10L 75 ft / 23 m 1,956 ft / 596 m 98.72° / 95.59° GRASS 0 ft / 0 m 0 ft / 0 m NONE
28 98 ft / 30 m 4,905 ft / 1,495 m 278.77° / 275.63° ASPHALT 246 ft / 75 m 0 ft / 0 m PREC-APP CENTERLINE EDGE THRESHOLD SALS
28R 75 ft / 23 m 1,956 ft / 596 m 278.73° / 275.59° GRASS 0 ft / 0 m 0 ft / 0 m NONE

Approach Navaids

Runway Type Ident Frequency Range Bearing (true/mag) Slope Elevation
10 DME IAL 108.75 MHz 18 nm / 33 km - - 1,333 ft / 406 m (AMSL)
10 GS IAL 108.75 MHz 10 nm / 19 km 99.60° / 96.46 ° 4.00° 1,333 ft / 406 m (AMSL)
10 LOC-ILS IAL 108.75 MHz 18 nm / 33 km 99.82° / 96.68 ° - 1,306 ft / 398 m (AMSL)

Popular Alternatives